Hugo Vega

Olheiro - Barcelona
23 Out 2027
Sábado
Processo

Personalidade

Adaptabilidade (3) Ambição (9) Controvérsia (10) Lealdade (12) Pressão (3) Profissionalismo (4) Espírito Esportivo (1) Temperamento (4)

Perfil

Estilo de Treinamento Democrático
Licença Nacional B
Determinação 7
Gestão de Pessoas 8
Motivação 18
Disciplina 8
Satisfação no Trabalho
78%
Fadiga
0%
Função Olheiro
Salário 38.6K p/s
Contrato 14.03.2030

Desempenho

Comportamento Bom
Eficácia do Treinamento
42%
Desenvolvimento do Jogador
55%
Prevenção de Lesões
50%
Implementação Tática
65%

Eventos Recentes

Participou de uma reunião de recrutamento 7d atrás
Recomendou um alvo de transferência 7d atrás
Observou uma partida 7d atrás
Observou uma partida 7d atrás
Observou uma partida 7d atrás
Observou uma partida 14d atrás
Observou uma partida 14d atrás
Observou uma partida 14d atrás

Monitorando agora

75
Jogador Clube Status Habilidade Confiança Observado Última observação Último voto
Ez Abde Betis Ativo 152 / 152 90% 1 01.06.2027 Aprovar
Roger Fernandes Al-Ittihad Ativo 133 / 141 40% 1 31.05.2027 -
Saïd El Mala Köln Ativo 135 / 139 40% 1 31.05.2027 -
Anatolii Trubin Tottenham Ativo 157 / 158 40% 8 27.05.2027 -
Đorđe Petrović Bournemouth Ativo 151 / 154 40% 5 27.05.2027 -
Diogo Costa Manchester United Ativo 165 / 169 40% 9 23.05.2027 -
Marco Carnesecchi Torino Ativo 161 / 161 40% 14 19.05.2027 -
Lucas Chevalier Paris Saint-Germain Ativo 162 / 157 40% 6 03.05.2027 -
Elliot Anderson Manchester City Ativo 152 / 149 40% 2 07.03.2027 -
Alberto Moleiro Villarreal Perdido 154 / 155 90% 2 07.03.2027 -
Kevin Fulham Ativo 149 / 144 40% 1 07.03.2027 -
Nuno Mendes Paris Saint-Germain Ativo 168 / 172 40% 2 06.03.2027 -
Savinho Tottenham Ativo 154 / 155 40% 3 06.03.2027 -
Matías Soulé AS Roma Ativo 158 / 157 40% 1 06.03.2027 -
Pablo Rodríguez Lech Ativo 122 / 115 40% 1 31.12.2026 -
Dušan Vlahović Betis Ativo 159 / 157 40% 1 31.12.2026 -
Jack Hinshelwood Brighton Ativo 144 / 151 40% 2 30.12.2026 -
Jérémy Doku Manchester City Ativo 166 / 168 40% 4 30.12.2026 -
Isaac Romero Sevilla Ativo 143 / 139 40% 1 30.12.2026 -
Hugo Ekitiké Liverpool Ativo 162 / 167 40% 4 28.12.2026 -
Ousmane Dembélé Paris Saint-Germain Ativo 185 / 188 40% 3 28.12.2026 -
Kenan Yıldız Juventus Ativo 162 / 163 40% 6 27.12.2026 -
Rodolfo Arteaga Liverpool Ativo 166 / 165 40% 2 27.12.2026 -
Bradley Barcola Liverpool Ativo 161 / 158 40% 4 26.12.2026 -
Ferran Torres Paris Saint-Germain Ativo 165 / 158 40% 4 24.12.2026 -
Thomas Alderweireld Dijon Ativo 127 / 125 40% 2 24.12.2026 -
Ollie Scarles Chelsea Ativo 128 / 138 40% 1 24.12.2026 -
Mario Soriano Deportivo La Coruña Ativo 132 / 135 30% 1 / 1m 23.12.2026 -
El Hadji Malick Diouf Brentford Ativo 141 / 144 40% 2 22.12.2026 -
Héctor Fort Real Sociedad Ativo 134 / 139 40% 4 22.12.2026 -
Yusi Alavés Ativo 130 / 131 40% 2 22.12.2026 -
Joško Gvardiol Manchester City Ativo 164 / 169 40% 4 22.12.2026 -
Amad Manchester United Ativo 152 / 157 40% 2 22.12.2026 -
Noni Madueke Arsenal Ativo 154 / 160 40% 1 22.12.2026 -
Adam Wharton Crystal Palace Ativo 149 / 153 40% 4 21.12.2026 -
Cole Palmer Chelsea Ativo 175 / 172 40% 2 20.12.2026 -
Matvey Safonov Paris Saint-Germain Ativo 151 / 153 40% 8 19.12.2026 -
Désiré Doué Paris Saint-Germain Ativo 159 / 167 40% 2 18.12.2026 -
Gabriel Martinelli Arsenal Ativo 166 / 164 40% 3 17.12.2026 -
Leny Yoro Monaco Ativo 145 / 142 40% 1 15.12.2026 -
Jorrel Hato Chelsea Ativo 144 / 147 40% 4 13.12.2026 -
Rayan Cherki Manchester City Ativo 164 / 164 40% 7 12.12.2026 -
Christos Mouzakitis Hull City Ativo 129 / 137 40% 2 09.12.2026 -
Nico González Newcastle United Ativo 159 / 164 40% 3 07.12.2026 -
Xavi Simons Tottenham Ativo 157 / 153 40% 2 07.12.2026 -
Gianluigi Donnarumma Manchester City Ativo 169 / 169 40% 6 06.12.2026 -
Nico O'Reilly Manchester City Ativo 154 / 156 40% 7 04.12.2026 -
Tino Livramento Newcastle United Ativo 156 / 150 40% 3 30.11.2026 -
Ian Maatsen Aston Villa Ativo 152 / 157 40% 1 28.11.2026 -
Sergi Domínguez Dinamo Zagreb Ativo 120 / 118 40% 3 25.11.2026 -
Lautaro Martínez Inter Ativo 170 / 172 40% 1 20.11.2026 -
Givairo Read Feyenoord Ativo 138 / 143 40% 2 18.11.2026 -
Warren Zaïre-Emery Paris Saint-Germain Perdido 157 / 160 40% 5 13.11.2026 -
Nahuel Herrera Penarol Ativo 122 / 127 40% 1 13.11.2026 -
Mateo Mendoza Godoy Cruz Ativo 122 / 126 40% 4 07.11.2026 -
Tiziano Dornell Almagro Ativo 112 / 116 40% 2 06.11.2026 -
Ansu Fati Monaco Ativo 136 / 132 40% 1 06.11.2026 -
Diego García Malmo FF Ativo 121 / 110 40% 2 30.10.2026 -
Pau Víctor Estrela da Amadora Ativo 140 / 136 40% 1 30.10.2026 -
Nicolás Cordero Aldosivi Ativo 119 / 118 40% 1 30.10.2026 -
Ignacio Russo Tigre Ativo 126 / 130 40% 1 17.10.2026 -
Rico Lewis Manchester City Ativo 150 / 156 40% 1 13.10.2026 -
Lucas Bergvall Tottenham Ativo 141 / 151 40% 1 06.10.2026 -
Roberto Fernández Braga Ativo 140 / 138 40% 1 05.10.2026 -
Juan Rocca Gimnasia y Tiro Ativo 107 / 101 40% 1 02.10.2026 -
Alan Velasco Boca Juniors Ativo 131 / 123 40% 2 26.09.2026 -
Alexander Díaz Deportivo Riestra Ativo 115 / 120 40% 1 26.09.2026 -
Ramiro Ruiz Rodríguez Atlético Tucumán Ativo 119 / 115 40% 1 26.09.2026 -
Enzo Avaro Mitre Ativo 114 / 116 40% 1 24.09.2026 -
Pau Navarro Villarreal Ativo 139 / 150 40% 3 22.09.2026 -
Carlos Gugenheim Almirante Brown Ativo 108 / 109 40% 1 17.09.2026 -
Noah Sadiki Sunderland Ativo 143 / 143 40% 1 15.09.2026 -
Ezequiel Almirón Estudiantes Ativo 113 / 107 40% 1 10.09.2026 -
Agustín Ruberto River Plate Ativo 114 / 121 40% 1 10.09.2026 -
Alexis Cuello San Lorenzo Ativo 124 / 118 40% 1 10.09.2026 -